Saxapahaw, North Carolina
Current Conditions -  °F | °C
As of 2:54 PM on Friday 31 Oct 2014 (Local Time) from KBUY Reporting Station
Overcast Overcast  
Wind Chill: 60°   Ceiling: 5500
Heat Index: 60°   Visibility: 10mi
Dew Point: 40°   Wind: 3mph
Humidity: 47%   Direction: NA
Pressure: 29.84"   Gusts: NA
Location:  35.95°N, 79.32°W
Report Text: KBUY 311854Z AUTO VRB03KT 10SM OVC055 16/04 A2984 RMK AO2 SLP102 T01560044
Loading
Personal Weather Stations






























Interactive Weather Map
Tropical Storm Tracking
New forecast layout! Learn more

10-Day Weather Forecast

Advertisements
Track Severe Weather on mobile